sensor_id;sensor_type;location;lat;lon;timestamp;P1;durP1;ratioP1;P2;durP2;ratioP2
21758;SDS011;11041;50.854;20.580;2023-07-20T00:02:25;13.52;;;9.90;;
21758;SDS011;11041;50.854;20.580;2023-07-20T00:04:52;12.98;;;9.75;;
21758;SDS011;11041;50.854;20.580;2023-07-20T00:07:19;13.27;;;9.27;;
21758;SDS011;11041;50.854;20.580;2023-07-20T00:09:45;15.60;;;9.75;;
21758;SDS011;11041;50.854;20.580;2023-07-20T00:12:11;14.57;;;9.35;;
21758;SDS011;11041;50.854;20.580;2023-07-20T00:14:38;13.32;;;9.70;;
21758;SDS011;11041;50.854;20.580;2023-07-20T00:17:05;12.82;;;9.57;;
21758;SDS011;11041;50.854;20.580;2023-07-20T00:19:32;14.45;;;9.43;;
21758;SDS011;11041;50.854;20.580;2023-07-20T00:21:58;13.43;;;9.43;;
21758;SDS011;11041;50.854;20.580;2023-07-20T00:24:25;13.60;;;9.48;;
21758;SDS011;11041;50.854;20.580;2023-07-20T00:26:51;12.68;;;9.77;;
21758;SDS011;11041;50.854;20.580;2023-07-20T00:29:18;13.32;;;9.65;;
21758;SDS011;11041;50.854;20.580;2023-07-20T00:31:44;11.10;;;8.80;;
21758;SDS011;11041;50.854;20.580;2023-07-20T00:34:11;11.45;;;8.88;;
21758;SDS011;11041;50.854;20.580;2023-07-20T00:36:38;11.90;;;8.40;;
21758;SDS011;11041;50.854;20.580;2023-07-20T00:39:04;11.25;;;8.98;;
21758;SDS011;11041;50.854;20.580;2023-07-20T00:41:31;11.45;;;8.57;;
21758;SDS011;11041;50.854;20.580;2023-07-20T00:43:59;12.02;;;9.25;;
21758;SDS011;11041;50.854;20.580;2023-07-20T00:46:25;14.32;;;8.30;;
21758;SDS011;11041;50.854;20.580;2023-07-20T00:48:52;8.63;;;7.57;;
21758;SDS011;11041;50.854;20.580;2023-07-20T00:51:20;10.35;;;7.55;;
21758;SDS011;11041;50.854;20.580;2023-07-20T00:53:49;10.93;;;8.23;;
21758;SDS011;11041;50.854;20.580;2023-07-20T00:56:16;9.65;;;7.93;;
21758;SDS011;11041;50.854;20.580;2023-07-20T00:58:43;11.20;;;8.05;;
21758;SDS011;11041;50.854;20.580;2023-07-20T01:01:09;9.88;;;7.40;;
21758;SDS011;11041;50.854;20.580;2023-07-20T01:03:37;9.65;;;8.07;;
21758;SDS011;11041;50.854;20.580;2023-07-20T01:09:18;8.98;;;7.47;;
21758;SDS011;11041;50.854;20.580;2023-07-20T01:12:12;9.15;;;7.95;;
21758;SDS011;11041;50.854;20.580;2023-07-20T01:14:49;8.48;;;7.63;;
21758;SDS011;11041;50.854;20.580;2023-07-20T01:17:17;11.13;;;7.75;;
21758;SDS011;11041;50.854;20.580;2023-07-20T01:19:44;8.38;;;7.57;;
21758;SDS011;11041;50.854;20.580;2023-07-20T01:22:16;9.90;;;7.38;;
21758;SDS011;11041;50.854;20.580;2023-07-20T01:28:03;9.93;;;8.07;;
21758;SDS011;11041;50.854;20.580;2023-07-20T01:33:56;11.52;;;8.75;;
21758;SDS011;11041;50.854;20.580;2023-07-20T01:36:26;11.52;;;8.32;;
21758;SDS011;11041;50.854;20.580;2023-07-20T01:38:58;12.35;;;9.25;;
21758;SDS011;11041;50.854;20.580;2023-07-20T01:41:25;14.55;;;9.13;;
21758;SDS011;11041;50.854;20.580;2023-07-20T01:43:51;15.70;;;9.07;;
21758;SDS011;11041;50.854;20.580;2023-07-20T01:46:18;9.68;;;8.68;;
21758;SDS011;11041;50.854;20.580;2023-07-20T01:48:45;13.50;;;9.18;;
21758;SDS011;11041;50.854;20.580;2023-07-20T01:51:12;14.68;;;9.13;;
21758;SDS011;11041;50.854;20.580;2023-07-20T01:53:38;15.32;;;9.02;;
21758;SDS011;11041;50.854;20.580;2023-07-20T01:56:05;11.27;;;8.32;;
21758;SDS011;11041;50.854;20.580;2023-07-20T01:58:31;12.80;;;8.45;;
21758;SDS011;11041;50.854;20.580;2023-07-20T02:00:58;12.98;;;8.38;;
21758;SDS011;11041;50.854;20.580;2023-07-20T02:03:24;13.00;;;9.50;;
21758;SDS011;11041;50.854;20.580;2023-07-20T02:05:52;12.10;;;8.75;;
21758;SDS011;11041;50.854;20.580;2023-07-20T02:08:19;12.95;;;8.60;;
21758;SDS011;11041;50.854;20.580;2023-07-20T02:10:47;14.80;;;9.30;;
21758;SDS011;11041;50.854;20.580;2023-07-20T02:13:14;13.38;;;9.05;;
21758;SDS011;11041;50.854;20.580;2023-07-20T02:15:42;15.63;;;9.77;;
21758;SDS011;11041;50.854;20.580;2023-07-20T02:18:08;15.40;;;10.55;;
21758;SDS011;11041;50.854;20.580;2023-07-20T02:20:35;16.55;;;10.32;;
21758;SDS011;11041;50.854;20.580;2023-07-20T02:23:02;15.80;;;9.82;;
21758;SDS011;11041;50.854;20.580;2023-07-20T02:25:29;15.70;;;9.73;;
21758;SDS011;11041;50.854;20.580;2023-07-20T02:27:55;18.70;;;9.82;;
21758;SDS011;11041;50.854;20.580;2023-07-20T02:30:23;14.35;;;10.43;;
21758;SDS011;11041;50.854;20.580;2023-07-20T02:32:49;18.02;;;11.57;;
21758;SDS011;11041;50.854;20.580;2023-07-20T02:35:16;19.35;;;11.40;;
21758;SDS011;11041;50.854;20.580;2023-07-20T02:37:42;16.75;;;11.02;;
21758;SDS011;11041;50.854;20.580;2023-07-20T02:40:09;16.60;;;11.23;;
21758;SDS011;11041;50.854;20.580;2023-07-20T02:42:35;22.63;;;12.75;;
21758;SDS011;11041;50.854;20.580;2023-07-20T02:45:02;21.70;;;12.55;;
21758;SDS011;11041;50.854;20.580;2023-07-20T02:47:30;26.60;;;13.32;;
21758;SDS011;11041;50.854;20.580;2023-07-20T02:49:57;22.38;;;12.23;;
21758;SDS011;11041;50.854;20.580;2023-07-20T02:52:24;24.63;;;13.30;;
21758;SDS011;11041;50.854;20.580;2023-07-20T02:54:50;27.45;;;12.93;;
21758;SDS011;11041;50.854;20.580;2023-07-20T02:57:17;30.55;;;12.70;;
21758;SDS011;11041;50.854;20.580;2023-07-20T02:59:44;22.92;;;12.07;;
21758;SDS011;11041;50.854;20.580;2023-07-20T03:02:10;19.20;;;11.45;;
21758;SDS011;11041;50.854;20.580;2023-07-20T03:04:37;21.83;;;11.77;;
21758;SDS011;11041;50.854;20.580;2023-07-20T03:07:04;28.25;;;12.48;;
21758;SDS011;11041;50.854;20.580;2023-07-20T03:09:31;18.70;;;12.23;;
21758;SDS011;11041;50.854;20.580;2023-07-20T03:11:58;20.90;;;12.10;;
21758;SDS011;11041;50.854;20.580;2023-07-20T03:14:24;25.63;;;12.98;;
21758;SDS011;11041;50.854;20.580;2023-07-20T03:16:51;22.23;;;12.23;;
21758;SDS011;11041;50.854;20.580;2023-07-20T03:19:17;19.58;;;12.02;;
21758;SDS011;11041;50.854;20.580;2023-07-20T03:21:44;20.23;;;12.40;;
21758;SDS011;11041;50.854;20.580;2023-07-20T03:24:11;18.48;;;12.25;;
21758;SDS011;11041;50.854;20.580;2023-07-20T03:26:37;19.05;;;12.90;;
21758;SDS011;11041;50.854;20.580;2023-07-20T03:29:04;22.88;;;14.07;;
21758;SDS011;11041;50.854;20.580;2023-07-20T03:31:32;21.02;;;13.23;;
21758;SDS011;11041;50.854;20.580;2023-07-20T03:33:59;16.45;;;13.02;;
21758;SDS011;11041;50.854;20.580;2023-07-20T03:36:25;18.73;;;13.45;;
21758;SDS011;11041;50.854;20.580;2023-07-20T03:38:51;21.17;;;13.73;;
21758;SDS011;11041;50.854;20.580;2023-07-20T03:41:18;23.40;;;14.63;;
21758;SDS011;11041;50.854;20.580;2023-07-20T03:43:45;22.48;;;15.05;;
21758;SDS011;11041;50.854;20.580;2023-07-20T03:46:12;20.73;;;15.95;;
21758;SDS011;11041;50.854;20.580;2023-07-20T03:48:38;22.42;;;14.05;;
21758;SDS011;11041;50.854;20.580;2023-07-20T03:51:04;17.85;;;13.13;;
21758;SDS011;11041;50.854;20.580;2023-07-20T03:53:31;19.55;;;14.52;;
21758;SDS011;11041;50.854;20.580;2023-07-20T03:55:58;21.92;;;14.90;;
21758;SDS011;11041;50.854;20.580;2023-07-20T03:58:25;21.92;;;15.48;;
21758;SDS011;11041;50.854;20.580;2023-07-20T04:00:51;21.95;;;14.90;;
21758;SDS011;11041;50.854;20.580;2023-07-20T04:03:18;23.30;;;14.82;;
21758;SDS011;11041;50.854;20.580;2023-07-20T04:05:46;17.92;;;14.10;;
21758;SDS011;11041;50.854;20.580;2023-07-20T04:08:14;18.27;;;14.00;;
21758;SDS011;11041;50.854;20.580;2023-07-20T04:10:44;16.98;;;11.23;;
21758;SDS011;11041;50.854;20.580;2023-07-20T04:13:11;12.25;;;9.55;;
21758;SDS011;11041;50.854;20.580;2023-07-20T04:15:38;14.23;;;10.02;;
21758;SDS011;11041;50.854;20.580;2023-07-20T04:18:06;11.43;;;9.20;;
21758;SDS011;11041;50.854;20.580;2023-07-20T04:20:33;16.27;;;10.52;;
21758;SDS011;11041;50.854;20.580;2023-07-20T04:23:00;14.43;;;11.02;;
21758;SDS011;11041;50.854;20.580;2023-07-20T04:25:26;14.05;;;11.23;;
21758;SDS011;11041;50.854;20.580;2023-07-20T04:27:53;16.83;;;11.95;;
21758;SDS011;11041;50.854;20.580;2023-07-20T04:30:19;19.23;;;12.35;;
21758;SDS011;11041;50.854;20.580;2023-07-20T04:32:47;16.60;;;11.52;;
21758;SDS011;11041;50.854;20.580;2023-07-20T04:35:26;16.65;;;12.65;;
21758;SDS011;11041;50.854;20.580;2023-07-20T04:38:16;13.10;;;10.88;;
21758;SDS011;11041;50.854;20.580;2023-07-20T04:40:47;12.30;;;10.88;;
21758;SDS011;11041;50.854;20.580;2023-07-20T04:43:17;13.93;;;10.50;;
21758;SDS011;11041;50.854;20.580;2023-07-20T04:45:43;13.95;;;10.50;;
21758;SDS011;11041;50.854;20.580;2023-07-20T04:48:11;14.27;;;9.63;;
21758;SDS011;11041;50.854;20.580;2023-07-20T04:50:41;9.85;;;8.85;;
21758;SDS011;11041;50.854;20.580;2023-07-20T04:53:11;8.95;;;8.05;;
21758;SDS011;11041;50.854;20.580;2023-07-20T04:55:38;13.18;;;8.90;;
21758;SDS011;11041;50.854;20.580;2023-07-20T04:58:06;15.13;;;9.05;;
21758;SDS011;11041;50.854;20.580;2023-07-20T05:00:33;12.82;;;9.43;;
21758;SDS011;11041;50.854;20.580;2023-07-20T05:03:00;11.32;;;8.52;;
21758;SDS011;11041;50.854;20.580;2023-07-20T05:05:27;11.98;;;7.65;;
21758;SDS011;11041;50.854;20.580;2023-07-20T05:07:53;10.23;;;7.95;;
21758;SDS011;11041;50.854;20.580;2023-07-20T05:10:20;10.55;;;8.00;;
21758;SDS011;11041;50.854;20.580;2023-07-20T05:12:46;13.25;;;8.10;;
21758;SDS011;11041;50.854;20.580;2023-07-20T05:15:12;10.60;;;8.57;;
21758;SDS011;11041;50.854;20.580;2023-07-20T05:17:39;11.75;;;7.88;;
21758;SDS011;11041;50.854;20.580;2023-07-20T05:20:06;13.30;;;8.93;;
21758;SDS011;11041;50.854;20.580;2023-07-20T05:22:36;13.40;;;8.52;;
21758;SDS011;11041;50.854;20.580;2023-07-20T05:25:08;13.60;;;9.25;;
21758;SDS011;11041;50.854;20.580;2023-07-20T05:27:37;10.38;;;8.43;;
21758;SDS011;11041;50.854;20.580;2023-07-20T05:30:05;16.83;;;8.52;;
21758;SDS011;11041;50.854;20.580;2023-07-20T05:32:33;11.60;;;8.85;;
21758;SDS011;11041;50.854;20.580;2023-07-20T05:34:59;11.02;;;8.50;;
21758;SDS011;11041;50.854;20.580;2023-07-20T05:37:26;12.38;;;9.10;;
21758;SDS011;11041;50.854;20.580;2023-07-20T05:39:52;13.63;;;9.57;;
21758;SDS011;11041;50.854;20.580;2023-07-20T05:42:19;13.57;;;7.95;;
21758;SDS011;11041;50.854;20.580;2023-07-20T05:44:45;11.35;;;8.35;;
21758;SDS011;11041;50.854;20.580;2023-07-20T05:47:13;11.63;;;9.68;;
21758;SDS011;11041;50.854;20.580;2023-07-20T05:49:40;12.27;;;8.65;;
21758;SDS011;11041;50.854;20.580;2023-07-20T05:52:06;11.82;;;8.50;;
21758;SDS011;11041;50.854;20.580;2023-07-20T05:54:33;11.70;;;8.40;;
21758;SDS011;11041;50.854;20.580;2023-07-20T05:57:00;11.38;;;8.63;;
21758;SDS011;11041;50.854;20.580;2023-07-20T05:59:27;9.55;;;8.18;;
21758;SDS011;11041;50.854;20.580;2023-07-20T06:01:55;12.55;;;7.90;;
21758;SDS011;11041;50.854;20.580;2023-07-20T06:04:22;12.95;;;8.20;;
21758;SDS011;11041;50.854;20.580;2023-07-20T06:06:49;10.88;;;7.35;;
21758;SDS011;11041;50.854;20.580;2023-07-20T06:09:15;9.45;;;8.52;;
21758;SDS011;11041;50.854;20.580;2023-07-20T06:11:42;8.98;;;6.70;;
21758;SDS011;11041;50.854;20.580;2023-07-20T06:14:08;7.95;;;7.22;;
21758;SDS011;11041;50.854;20.580;2023-07-20T06:16:35;8.32;;;6.88;;
21758;SDS011;11041;50.854;20.580;2023-07-20T06:19:02;8.73;;;6.93;;
21758;SDS011;11041;50.854;20.580;2023-07-20T06:21:29;10.57;;;8.05;;
21758;SDS011;11041;50.854;20.580;2023-07-20T06:23:57;9.70;;;7.88;;
21758;SDS011;11041;50.854;20.580;2023-07-20T06:26:24;9.75;;;7.75;;
21758;SDS011;11041;50.854;20.580;2023-07-20T06:28:51;11.25;;;7.95;;
21758;SDS011;11041;50.854;20.580;2023-07-20T06:31:17;11.75;;;7.63;;
21758;SDS011;11041;50.854;20.580;2023-07-20T06:33:43;10.73;;;6.90;;
21758;SDS011;11041;50.854;20.580;2023-07-20T06:36:10;9.25;;;6.93;;
21758;SDS011;11041;50.854;20.580;2023-07-20T06:38:36;8.32;;;6.47;;
21758;SDS011;11041;50.854;20.580;2023-07-20T06:41:03;9.35;;;5.97;;
21758;SDS011;11041;50.854;20.580;2023-07-20T06:43:29;9.23;;;6.85;;
21758;SDS011;11041;50.854;20.580;2023-07-20T06:45:56;11.10;;;7.80;;
21758;SDS011;11041;50.854;20.580;2023-07-20T06:48:22;11.25;;;6.20;;
21758;SDS011;11041;50.854;20.580;2023-07-20T06:50:50;13.65;;;7.07;;
21758;SDS011;11041;50.854;20.580;2023-07-20T06:53:16;10.30;;;7.63;;
21758;SDS011;11041;50.854;20.580;2023-07-20T06:55:43;10.20;;;7.13;;
21758;SDS011;11041;50.854;20.580;2023-07-20T06:58:10;9.73;;;6.63;;
21758;SDS011;11041;50.854;20.580;2023-07-20T07:00:38;10.93;;;6.25;;
21758;SDS011;11041;50.854;20.580;2023-07-20T07:03:04;9.15;;;6.40;;
21758;SDS011;11041;50.854;20.580;2023-07-20T07:05:30;9.40;;;7.30;;
21758;SDS011;11041;50.854;20.580;2023-07-20T07:08:00;8.82;;;7.05;;
21758;SDS011;11041;50.854;20.580;2023-07-20T07:10:27;8.50;;;6.25;;
21758;SDS011;11041;50.854;20.580;2023-07-20T07:12:53;9.50;;;6.55;;
21758;SDS011;11041;50.854;20.580;2023-07-20T07:15:19;7.82;;;5.80;;
21758;SDS011;11041;50.854;20.580;2023-07-20T07:17:45;8.93;;;6.30;;
21758;SDS011;11041;50.854;20.580;2023-07-20T07:20:12;6.70;;;5.55;;
21758;SDS011;11041;50.854;20.580;2023-07-20T07:22:38;7.03;;;5.72;;
21758;SDS011;11041;50.854;20.580;2023-07-20T07:25:05;8.38;;;5.93;;
21758;SDS011;11041;50.854;20.580;2023-07-20T07:27:33;7.75;;;5.60;;
21758;SDS011;11041;50.854;20.580;2023-07-20T07:30:00;6.30;;;5.18;;
21758;SDS011;11041;50.854;20.580;2023-07-20T07:32:28;8.68;;;5.53;;
21758;SDS011;11041;50.854;20.580;2023-07-20T07:34:54;7.70;;;5.25;;
21758;SDS011;11041;50.854;20.580;2023-07-20T07:37:21;9.50;;;5.30;;
21758;SDS011;11041;50.854;20.580;2023-07-20T07:39:48;5.35;;;4.05;;
21758;SDS011;11041;50.854;20.580;2023-07-20T07:42:15;8.88;;;5.15;;
21758;SDS011;11041;50.854;20.580;2023-07-20T07:44:42;7.10;;;4.88;;
21758;SDS011;11041;50.854;20.580;2023-07-20T07:47:09;5.82;;;4.93;;
21758;SDS011;11041;50.854;20.580;2023-07-20T07:49:36;6.60;;;4.45;;
21758;SDS011;11041;50.854;20.580;2023-07-20T07:52:02;6.18;;;3.78;;
21758;SDS011;11041;50.854;20.580;2023-07-20T07:54:29;6.47;;;2.92;;
21758;SDS011;11041;50.854;20.580;2023-07-20T07:56:56;5.53;;;3.85;;
21758;SDS011;11041;50.854;20.580;2023-07-20T07:59:23;4.25;;;3.47;;
21758;SDS011;11041;50.854;20.580;2023-07-20T08:01:49;7.18;;;3.38;;
21758;SDS011;11041;50.854;20.580;2023-07-20T08:04:16;4.43;;;3.40;;
21758;SDS011;11041;50.854;20.580;2023-07-20T08:06:42;5.50;;;3.38;;
21758;SDS011;11041;50.854;20.580;2023-07-20T08:09:10;4.40;;;3.08;;
21758;SDS011;11041;50.854;20.580;2023-07-20T08:11:37;3.65;;;3.28;;
21758;SDS011;11041;50.854;20.580;2023-07-20T08:14:05;4.40;;;3.13;;
21758;SDS011;11041;50.854;20.580;2023-07-20T08:16:32;5.28;;;2.97;;
21758;SDS011;11041;50.854;20.580;2023-07-20T08:18:59;3.45;;;2.50;;
21758;SDS011;11041;50.854;20.580;2023-07-20T08:21:25;3.10;;;2.20;;
21758;SDS011;11041;50.854;20.580;2023-07-20T08:23:52;3.40;;;2.67;;
21758;SDS011;11041;50.854;20.580;2023-07-20T08:26:18;4.85;;;2.75;;
21758;SDS011;11041;50.854;20.580;2023-07-20T08:28:48;3.30;;;2.60;;
21758;SDS011;11041;50.854;20.580;2023-07-20T08:31:14;3.67;;;2.60;;
21758;SDS011;11041;50.854;20.580;2023-07-20T08:33:41;3.75;;;2.60;;
21758;SDS011;11041;50.854;20.580;2023-07-20T08:36:07;4.00;;;2.53;;
21758;SDS011;11041;50.854;20.580;2023-07-20T08:38:34;3.00;;;2.20;;
21758;SDS011;11041;50.854;20.580;2023-07-20T08:41:00;2.40;;;2.20;;
21758;SDS011;11041;50.854;20.580;2023-07-20T08:43:27;2.80;;;2.55;;
21758;SDS011;11041;50.854;20.580;2023-07-20T08:45:55;2.78;;;2.30;;
21758;SDS011;11041;50.854;20.580;2023-07-20T08:48:23;3.70;;;2.65;;
21758;SDS011;11041;50.854;20.580;2023-07-20T08:50:53;4.28;;;2.63;;
21758;SDS011;11041;50.854;20.580;2023-07-20T08:53:20;2.33;;;1.95;;
21758;SDS011;11041;50.854;20.580;2023-07-20T08:55:46;4.10;;;2.50;;
21758;SDS011;11041;50.854;20.580;2023-07-20T08:58:17;4.53;;;2.88;;
21758;SDS011;11041;50.854;20.580;2023-07-20T09:00:44;2.85;;;2.53;;
21758;SDS011;11041;50.854;20.580;2023-07-20T09:03:13;3.22;;;2.53;;
21758;SDS011;11041;50.854;20.580;2023-07-20T09:05:40;3.95;;;2.67;;
21758;SDS011;11041;50.854;20.580;2023-07-20T09:08:07;3.83;;;2.80;;
21758;SDS011;11041;50.854;20.580;2023-07-20T09:10:33;6.90;;;2.75;;
21758;SDS011;11041;50.854;20.580;2023-07-20T09:13:00;3.80;;;2.83;;
21758;SDS011;11041;50.854;20.580;2023-07-20T09:15:26;5.00;;;3.10;;
21758;SDS011;11041;50.854;20.580;2023-07-20T09:17:55;3.53;;;2.40;;
21758;SDS011;11041;50.854;20.580;2023-07-20T09:20:21;3.28;;;2.50;;
21758;SDS011;11041;50.854;20.580;2023-07-20T09:22:50;2.78;;;2.40;;
21758;SDS011;11041;50.854;20.580;2023-07-20T09:25:18;3.67;;;2.90;;
21758;SDS011;11041;50.854;20.580;2023-07-20T09:27:49;3.83;;;3.00;;
21758;SDS011;11041;50.854;20.580;2023-07-20T09:30:16;4.70;;;2.72;;
21758;SDS011;11041;50.854;20.580;2023-07-20T09:32:43;4.57;;;2.70;;
21758;SDS011;11041;50.854;20.580;2023-07-20T09:35:16;3.40;;;3.08;;
21758;SDS011;11041;50.854;20.580;2023-07-20T09:37:55;3.47;;;2.70;;
21758;SDS011;11041;50.854;20.580;2023-07-20T09:40:28;2.92;;;2.38;;
21758;SDS011;11041;50.854;20.580;2023-07-20T09:42:55;4.35;;;2.60;;
21758;SDS011;11041;50.854;20.580;2023-07-20T09:45:30;5.95;;;3.00;;
21758;SDS011;11041;50.854;20.580;2023-07-20T09:48:04;2.47;;;2.17;;
21758;SDS011;11041;50.854;20.580;2023-07-20T09:50:41;4.03;;;2.80;;
21758;SDS011;11041;50.854;20.580;2023-07-20T09:53:16;3.47;;;2.58;;
21758;SDS011;11041;50.854;20.580;2023-07-20T09:55:44;3.67;;;2.55;;
21758;SDS011;11041;50.854;20.580;2023-07-20T09:58:13;5.50;;;2.80;;
21758;SDS011;11041;50.854;20.580;2023-07-20T10:00:42;3.33;;;2.70;;
21758;SDS011;11041;50.854;20.580;2023-07-20T10:03:18;2.80;;;2.42;;
21758;SDS011;11041;50.854;20.580;2023-07-20T10:05:51;2.58;;;2.38;;
21758;SDS011;11041;50.854;20.580;2023-07-20T10:08:24;4.75;;;2.53;;
21758;SDS011;11041;50.854;20.580;2023-07-20T10:10:51;3.35;;;3.00;;
21758;SDS011;11041;50.854;20.580;2023-07-20T10:13:19;2.55;;;2.25;;
21758;SDS011;11041;50.854;20.580;2023-07-20T10:16:01;4.15;;;2.67;;
21758;SDS011;11041;50.854;20.580;2023-07-20T10:18:38;3.92;;;2.88;;
21758;SDS011;11041;50.854;20.580;2023-07-20T10:21:16;4.57;;;3.33;;
21758;SDS011;11041;50.854;20.580;2023-07-20T10:23:46;6.45;;;3.90;;
21758;SDS011;11041;50.854;20.580;2023-07-20T10:26:13;6.32;;;3.80;;
21758;SDS011;11041;50.854;20.580;2023-07-20T10:28:40;9.88;;;4.93;;
21758;SDS011;11041;50.854;20.580;2023-07-20T10:31:08;7.63;;;4.88;;
21758;SDS011;11041;50.854;20.580;2023-07-20T10:33:37;7.00;;;4.43;;
21758;SDS011;11041;50.854;20.580;2023-07-20T10:36:05;8.43;;;4.57;;
21758;SDS011;11041;50.854;20.580;2023-07-20T10:38:38;9.90;;;5.57;;
21758;SDS011;11041;50.854;20.580;2023-07-20T10:41:19;6.50;;;4.35;;
21758;SDS011;11041;50.854;20.580;2023-07-20T10:44:08;4.68;;;4.20;;
21758;SDS011;11041;50.854;20.580;2023-07-20T10:49:06;4.93;;;4.40;;
21758;SDS011;11041;50.854;20.580;2023-07-20T10:51:48;5.43;;;4.50;;
21758;SDS011;11041;50.854;20.580;2023-07-20T10:56:51;4.85;;;4.45;;
21758;SDS011;11041;50.854;20.580;2023-07-20T10:59:18;5.80;;;5.30;;
21758;SDS011;11041;50.854;20.580;2023-07-20T11:02:08;7.22;;;5.05;;
21758;SDS011;11041;50.854;20.580;2023-07-20T11:04:42;6.40;;;4.68;;
21758;SDS011;11041;50.854;20.580;2023-07-20T11:07:14;6.80;;;5.13;;
21758;SDS011;11041;50.854;20.580;2023-07-20T11:09:43;5.82;;;5.28;;
21758;SDS011;11041;50.854;20.580;2023-07-20T11:12:11;6.43;;;5.63;;
21758;SDS011;11041;50.854;20.580;2023-07-20T11:14:40;9.70;;;5.65;;
21758;SDS011;11041;50.854;20.580;2023-07-20T11:17:30;8.18;;;6.40;;
21758;SDS011;11041;50.854;20.580;2023-07-20T11:19:58;9.27;;;6.63;;
21758;SDS011;11041;50.854;20.580;2023-07-20T11:22:26;7.80;;;6.70;;
21758;SDS011;11041;50.854;20.580;2023-07-20T11:24:57;12.48;;;7.90;;
21758;SDS011;11041;50.854;20.580;2023-07-20T11:27:24;13.75;;;8.90;;
21758;SDS011;11041;50.854;20.580;2023-07-20T11:29:51;10.07;;;8.27;;
21758;SDS011;11041;50.854;20.580;2023-07-20T11:32:23;11.15;;;10.15;;
21758;SDS011;11041;50.854;20.580;2023-07-20T11:34:50;10.90;;;9.80;;
21758;SDS011;11041;50.854;20.580;2023-07-20T11:37:17;11.05;;;9.93;;
21758;SDS011;11041;50.854;20.580;2023-07-20T11:39:44;9.43;;;8.43;;
21758;SDS011;11041;50.854;20.580;2023-07-20T11:42:11;9.60;;;8.65;;
21758;SDS011;11041;50.854;20.580;2023-07-20T11:44:38;8.15;;;7.00;;
21758;SDS011;11041;50.854;20.580;2023-07-20T11:47:08;6.90;;;5.78;;
21758;SDS011;11041;50.854;20.580;2023-07-20T11:49:38;7.32;;;5.45;;
21758;SDS011;11041;50.854;20.580;2023-07-20T11:52:09;9.50;;;7.15;;
21758;SDS011;11041;50.854;20.580;2023-07-20T11:54:41;8.68;;;7.55;;
21758;SDS011;11041;50.854;20.580;2023-07-20T11:57:18;8.82;;;7.63;;
21758;SDS011;11041;50.854;20.580;2023-07-20T11:59:52;9.77;;;7.85;;
21758;SDS011;11041;50.854;20.580;2023-07-20T12:02:30;10.90;;;9.70;;
21758;SDS011;11041;50.854;20.580;2023-07-20T12:04:58;11.20;;;10.20;;
21758;SDS011;11041;50.854;20.580;2023-07-20T12:07:25;11.68;;;10.35;;
21758;SDS011;11041;50.854;20.580;2023-07-20T12:10:07;10.77;;;9.40;;
21758;SDS011;11041;50.854;20.580;2023-07-20T12:12:39;6.68;;;5.45;;
21758;SDS011;11041;50.854;20.580;2023-07-20T12:15:19;4.93;;;4.28;;
21758;SDS011;11041;50.854;20.580;2023-07-20T12:17:49;5.35;;;4.85;;
21758;SDS011;11041;50.854;20.580;2023-07-20T12:20:26;6.10;;;4.38;;
21758;SDS011;11041;50.854;20.580;2023-07-20T12:23:02;4.85;;;4.35;;
21758;SDS011;11041;50.854;20.580;2023-07-20T12:28:08;4.72;;;4.32;;
21758;SDS011;11041;50.854;20.580;2023-07-20T12:30:40;5.93;;;4.60;;
21758;SDS011;11041;50.854;20.580;2023-07-20T12:33:12;5.50;;;4.32;;
21758;SDS011;11041;50.854;20.580;2023-07-20T12:35:41;5.50;;;5.00;;
21758;SDS011;11041;50.854;20.580;2023-07-20T12:38:08;5.43;;;4.75;;
21758;SDS011;11041;50.854;20.580;2023-07-20T12:40:35;5.75;;;4.47;;
21758;SDS011;11041;50.854;20.580;2023-07-20T12:43:02;7.53;;;5.45;;
21758;SDS011;11041;50.854;20.580;2023-07-20T12:45:29;4.72;;;4.35;;
21758;SDS011;11041;50.854;20.580;2023-07-20T12:47:56;5.35;;;4.90;;
21758;SDS011;11041;50.854;20.580;2023-07-20T12:50:22;5.60;;;5.10;;
21758;SDS011;11041;50.854;20.580;2023-07-20T12:52:49;6.35;;;5.75;;
21758;SDS011;11041;50.854;20.580;2023-07-20T12:55:15;5.88;;;5.28;;
21758;SDS011;11041;50.854;20.580;2023-07-20T12:57:42;5.38;;;4.85;;
21758;SDS011;11041;50.854;20.580;2023-07-20T13:00:09;5.95;;;5.43;;
21758;SDS011;11041;50.854;20.580;2023-07-20T13:02:37;6.00;;;5.43;;
21758;SDS011;11041;50.854;20.580;2023-07-20T13:05:05;5.30;;;4.40;;
21758;SDS011;11041;50.854;20.580;2023-07-20T13:07:33;4.38;;;3.97;;
21758;SDS011;11041;50.854;20.580;2023-07-20T13:10:03;4.80;;;3.95;;
21758;SDS011;11041;50.854;20.580;2023-07-20T13:12:31;7.00;;;3.90;;
21758;SDS011;11041;50.854;20.580;2023-07-20T13:15:01;6.38;;;3.83;;
21758;SDS011;11041;50.854;20.580;2023-07-20T13:17:34;3.58;;;3.28;;
21758;SDS011;11041;50.854;20.580;2023-07-20T13:20:03;6.68;;;3.00;;
21758;SDS011;11041;50.854;20.580;2023-07-20T13:22:32;3.30;;;3.03;;
21758;SDS011;11041;50.854;20.580;2023-07-20T13:25:00;3.10;;;2.83;;
21758;SDS011;11041;50.854;20.580;2023-07-20T13:27:26;4.50;;;2.60;;
21758;SDS011;11041;50.854;20.580;2023-07-20T13:29:53;2.47;;;1.90;;
21758;SDS011;11041;50.854;20.580;2023-07-20T13:32:20;3.20;;;2.28;;
21758;SDS011;11041;50.854;20.580;2023-07-20T13:34:48;2.17;;;1.98;;
21758;SDS011;11041;50.854;20.580;2023-07-20T13:37:14;2.67;;;2.10;;
21758;SDS011;11041;50.854;20.580;2023-07-20T13:39:44;2.85;;;2.00;;
21758;SDS011;11041;50.854;20.580;2023-07-20T13:42:11;2.85;;;2.17;;
21758;SDS011;11041;50.854;20.580;2023-07-20T13:44:38;2.55;;;2.08;;
21758;SDS011;11041;50.854;20.580;2023-07-20T13:47:05;4.18;;;2.30;;
21758;SDS011;11041;50.854;20.580;2023-07-20T13:49:32;5.35;;;2.17;;
21758;SDS011;11041;50.854;20.580;2023-07-20T13:51:58;3.92;;;2.25;;
21758;SDS011;11041;50.854;20.580;2023-07-20T13:54:25;3.88;;;2.40;;
21758;SDS011;11041;50.854;20.580;2023-07-20T13:56:51;5.13;;;2.90;;
21758;SDS011;11041;50.854;20.580;2023-07-20T13:59:18;4.55;;;2.40;;
21758;SDS011;11041;50.854;20.580;2023-07-20T14:01:45;5.13;;;2.40;;
21758;SDS011;11041;50.854;20.580;2023-07-20T14:04:12;2.50;;;2.13;;
21758;SDS011;11041;50.854;20.580;2023-07-20T14:06:38;2.72;;;2.35;;
21758;SDS011;11041;50.854;20.580;2023-07-20T14:09:05;3.67;;;2.30;;
21758;SDS011;11041;50.854;20.580;2023-07-20T14:11:31;4.53;;;2.33;;
21758;SDS011;11041;50.854;20.580;2023-07-20T14:13:58;3.00;;;2.58;;
21758;SDS011;11041;50.854;20.580;2023-07-20T14:16:24;4.10;;;2.70;;
21758;SDS011;11041;50.854;20.580;2023-07-20T14:18:51;5.57;;;2.95;;
21758;SDS011;11041;50.854;20.580;2023-07-20T14:21:19;5.57;;;2.80;;
21758;SDS011;11041;50.854;20.580;2023-07-20T14:23:49;3.10;;;2.80;;
21758;SDS011;11041;50.854;20.580;2023-07-20T14:26:17;5.40;;;2.80;;
21758;SDS011;11041;50.854;20.580;2023-07-20T14:28:44;3.25;;;2.88;;
21758;SDS011;11041;50.854;20.580;2023-07-20T14:31:10;4.18;;;2.97;;
21758;SDS011;11041;50.854;20.580;2023-07-20T14:33:37;4.65;;;2.88;;
21758;SDS011;11041;50.854;20.580;2023-07-20T14:36:03;3.08;;;2.45;;
21758;SDS011;11041;50.854;20.580;2023-07-20T14:38:30;2.67;;;2.47;;
21758;SDS011;11041;50.854;20.580;2023-07-20T14:40:59;2.63;;;2.22;;
21758;SDS011;11041;50.854;20.580;2023-07-20T14:43:26;2.55;;;2.10;;
21758;SDS011;11041;50.854;20.580;2023-07-20T14:45:52;3.20;;;2.83;;
21758;SDS011;11041;50.854;20.580;2023-07-20T14:48:20;3.70;;;3.33;;
21758;SDS011;11041;50.854;20.580;2023-07-20T14:50:47;4.05;;;3.50;;